sensor_id;sensor_type;location;lat;lon;timestamp;temperature;humidity
61386;DHT22;47256;18.904;-99.054;2023-07-13T00:02:18;29.50;99.90
61386;DHT22;47256;18.904;-99.054;2023-07-13T00:04:45;29.50;99.90
61386;DHT22;47256;18.904;-99.054;2023-07-13T00:07:13;29.40;99.90
61386;DHT22;47256;18.904;-99.054;2023-07-13T00:09:41;29.40;99.90
61386;DHT22;47256;18.904;-99.054;2023-07-13T00:12:28;29.30;99.90
61386;DHT22;47256;18.904;-99.054;2023-07-13T00:14:59;29.20;99.90
61386;DHT22;47256;18.904;-99.054;2023-07-13T00:17:27;29.20;99.90
61386;DHT22;47256;18.904;-99.054;2023-07-13T00:19:55;29.20;99.90
61386;DHT22;47256;18.904;-99.054;2023-07-13T00:22:24;29.20;99.90
61386;DHT22;47256;18.904;-99.054;2023-07-13T00:24:53;29.20;99.90
61386;DHT22;47256;18.904;-99.054;2023-07-13T00:27:23;29.20;99.90
61386;DHT22;47256;18.904;-99.054;2023-07-13T00:29:53;29.20;99.90
61386;DHT22;47256;18.904;-99.054;2023-07-13T00:32:20;29.20;99.90
61386;DHT22;47256;18.904;-99.054;2023-07-13T00:34:48;29.20;99.90
61386;DHT22;47256;18.904;-99.054;2023-07-13T00:37:18;29.20;99.90
61386;DHT22;47256;18.904;-99.054;2023-07-13T00:39:45;29.20;99.90
61386;DHT22;47256;18.904;-99.054;2023-07-13T00:42:13;29.20;99.90
61386;DHT22;47256;18.904;-99.054;2023-07-13T00:44:40;29.10;99.90
61386;DHT22;47256;18.904;-99.054;2023-07-13T00:47:08;29.10;99.90
61386;DHT22;47256;18.904;-99.054;2023-07-13T00:49:36;29.10;99.90
61386;DHT22;47256;18.904;-99.054;2023-07-13T00:52:07;29.10;99.90
61386;DHT22;47256;18.904;-99.054;2023-07-13T00:54:44;29.00;99.90
61386;DHT22;47256;18.904;-99.054;2023-07-13T00:57:15;29.00;99.90
61386;DHT22;47256;18.904;-99.054;2023-07-13T00:59:50;28.90;99.90
61386;DHT22;47256;18.904;-99.054;2023-07-13T01:02:19;28.90;99.90
61386;DHT22;47256;18.904;-99.054;2023-07-13T01:04:48;28.90;99.90
61386;DHT22;47256;18.904;-99.054;2023-07-13T01:07:16;28.80;99.90
61386;DHT22;47256;18.904;-99.054;2023-07-13T01:09:43;28.80;99.90
61386;DHT22;47256;18.904;-99.054;2023-07-13T01:12:12;28.60;99.90
61386;DHT22;47256;18.904;-99.054;2023-07-13T01:14:40;28.60;99.90
61386;DHT22;47256;18.904;-99.054;2023-07-13T01:17:11;28.50;99.90
61386;DHT22;47256;18.904;-99.054;2023-07-13T01:19:43;28.50;99.90
61386;DHT22;47256;18.904;-99.054;2023-07-13T01:22:19;28.40;99.90
61386;DHT22;47256;18.904;-99.054;2023-07-13T01:24:54;28.40;99.90
61386;DHT22;47256;18.904;-99.054;2023-07-13T01:27:25;28.40;99.90
61386;DHT22;47256;18.904;-99.054;2023-07-13T01:29:53;28.40;99.90
61386;DHT22;47256;18.904;-99.054;2023-07-13T01:32:28;28.40;99.90
61386;DHT22;47256;18.904;-99.054;2023-07-13T01:34:59;28.40;99.90
61386;DHT22;47256;18.904;-99.054;2023-07-13T01:37:26;28.30;99.90
61386;DHT22;47256;18.904;-99.054;2023-07-13T01:40:00;28.30;99.90
61386;DHT22;47256;18.904;-99.054;2023-07-13T01:42:30;28.30;99.90
61386;DHT22;47256;18.904;-99.054;2023-07-13T01:44:58;28.30;99.90
61386;DHT22;47256;18.904;-99.054;2023-07-13T01:47:26;28.30;99.90
61386;DHT22;47256;18.904;-99.054;2023-07-13T01:49:59;28.20;99.90
61386;DHT22;47256;18.904;-99.054;2023-07-13T01:52:26;28.20;99.90
61386;DHT22;47256;18.904;-99.054;2023-07-13T01:54:53;28.10;99.90
61386;DHT22;47256;18.904;-99.054;2023-07-13T01:57:21;28.10;99.90
61386;DHT22;47256;18.904;-99.054;2023-07-13T01:59:48;28.00;99.90
61386;DHT22;47256;18.904;-99.054;2023-07-13T02:02:16;28.00;99.90
61386;DHT22;47256;18.904;-99.054;2023-07-13T02:04:43;28.00;99.90
61386;DHT22;47256;18.904;-99.054;2023-07-13T02:07:10;28.00;99.90
61386;DHT22;47256;18.904;-99.054;2023-07-13T02:09:37;28.00;99.90
61386;DHT22;47256;18.904;-99.054;2023-07-13T02:12:05;28.00;99.90
61386;DHT22;47256;18.904;-99.054;2023-07-13T02:14:37;28.00;99.90
61386;DHT22;47256;18.904;-99.054;2023-07-13T02:17:05;27.90;99.90
61386;DHT22;47256;18.904;-99.054;2023-07-13T02:19:33;27.90;99.90
61386;DHT22;47256;18.904;-99.054;2023-07-13T02:22:00;27.80;99.90
61386;DHT22;47256;18.904;-99.054;2023-07-13T02:24:28;27.80;99.90
61386;DHT22;47256;18.904;-99.054;2023-07-13T02:26:55;27.80;99.90
61386;DHT22;47256;18.904;-99.054;2023-07-13T02:29:23;27.80;99.90
61386;DHT22;47256;18.904;-99.054;2023-07-13T02:31:50;27.80;99.90
61386;DHT22;47256;18.904;-99.054;2023-07-13T02:34:17;27.70;99.90
61386;DHT22;47256;18.904;-99.054;2023-07-13T02:36:44;27.60;99.90
61386;DHT22;47256;18.904;-99.054;2023-07-13T02:39:14;27.60;99.90
61386;DHT22;47256;18.904;-99.054;2023-07-13T02:41:42;27.60;99.90
61386;DHT22;47256;18.904;-99.054;2023-07-13T02:44:11;27.50;99.90
61386;DHT22;47256;18.904;-99.054;2023-07-13T02:46:40;27.50;99.90
61386;DHT22;47256;18.904;-99.054;2023-07-13T02:49:08;27.50;99.90
61386;DHT22;47256;18.904;-99.054;2023-07-13T02:51:35;27.50;99.90
61386;DHT22;47256;18.904;-99.054;2023-07-13T02:54:04;27.40;99.90
61386;DHT22;47256;18.904;-99.054;2023-07-13T02:56:33;27.40;99.90
61386;DHT22;47256;18.904;-99.054;2023-07-13T02:59:01;27.40;99.90
61386;DHT22;47256;18.904;-99.054;2023-07-13T03:01:29;27.40;99.90
61386;DHT22;47256;18.904;-99.054;2023-07-13T03:03:56;27.40;99.90
61386;DHT22;47256;18.904;-99.054;2023-07-13T03:06:24;27.40;99.90
61386;DHT22;47256;18.904;-99.054;2023-07-13T03:08:57;27.40;99.90
61386;DHT22;47256;18.904;-99.054;2023-07-13T03:11:24;27.40;99.90
61386;DHT22;47256;18.904;-99.054;2023-07-13T03:14:02;27.40;99.90
61386;DHT22;47256;18.904;-99.054;2023-07-13T03:16:33;27.40;99.90
61386;DHT22;47256;18.904;-99.054;2023-07-13T03:19:00;27.30;99.90
61386;DHT22;47256;18.904;-99.054;2023-07-13T03:21:28;27.30;99.90
61386;DHT22;47256;18.904;-99.054;2023-07-13T03:23:55;27.30;99.90
61386;DHT22;47256;18.904;-99.054;2023-07-13T03:26:22;27.20;99.90
61386;DHT22;47256;18.904;-99.054;2023-07-13T03:28:50;27.20;99.90
61386;DHT22;47256;18.904;-99.054;2023-07-13T03:31:35;27.20;99.90
61386;DHT22;47256;18.904;-99.054;2023-07-13T03:34:04;27.20;99.90
61386;DHT22;47256;18.904;-99.054;2023-07-13T03:36:32;27.20;99.90
61386;DHT22;47256;18.904;-99.054;2023-07-13T03:39:04;27.20;99.90
61386;DHT22;47256;18.904;-99.054;2023-07-13T03:41:42;27.10;99.90
61386;DHT22;47256;18.904;-99.054;2023-07-13T03:44:10;27.00;99.90
61386;DHT22;47256;18.904;-99.054;2023-07-13T03:46:38;26.90;99.90
61386;DHT22;47256;18.904;-99.054;2023-07-13T03:49:06;26.70;99.90
61386;DHT22;47256;18.904;-99.054;2023-07-13T03:51:33;26.70;99.90
61386;DHT22;47256;18.904;-99.054;2023-07-13T03:54:01;26.70;99.90
61386;DHT22;47256;18.904;-99.054;2023-07-13T03:56:30;26.70;99.90
61386;DHT22;47256;18.904;-99.054;2023-07-13T03:59:01;26.70;99.90
61386;DHT22;47256;18.904;-99.054;2023-07-13T04:01:30;26.70;99.90
61386;DHT22;47256;18.904;-99.054;2023-07-13T04:03:57;26.70;99.90
61386;DHT22;47256;18.904;-99.054;2023-07-13T04:06:28;26.80;99.90
61386;DHT22;47256;18.904;-99.054;2023-07-13T04:08:58;26.70;99.90
61386;DHT22;47256;18.904;-99.054;2023-07-13T04:11:28;26.60;99.90
61386;DHT22;47256;18.904;-99.054;2023-07-13T04:13:56;26.40;99.90
61386;DHT22;47256;18.904;-99.054;2023-07-13T04:16:25;26.40;99.90
61386;DHT22;47256;18.904;-99.054;2023-07-13T04:18:52;26.40;99.90
61386;DHT22;47256;18.904;-99.054;2023-07-13T04:21:21;26.40;99.90
61386;DHT22;47256;18.904;-99.054;2023-07-13T04:23:49;26.40;99.90
61386;DHT22;47256;18.904;-99.054;2023-07-13T04:26:17;26.40;99.90
61386;DHT22;47256;18.904;-99.054;2023-07-13T04:28:48;26.40;99.90
61386;DHT22;47256;18.904;-99.054;2023-07-13T04:31:15;26.50;99.90
61386;DHT22;47256;18.904;-99.054;2023-07-13T04:33:43;26.40;99.90
61386;DHT22;47256;18.904;-99.054;2023-07-13T04:36:12;26.40;99.90
61386;DHT22;47256;18.904;-99.054;2023-07-13T04:38:39;26.40;99.90
61386;DHT22;47256;18.904;-99.054;2023-07-13T04:41:08;26.40;99.90
61386;DHT22;47256;18.904;-99.054;2023-07-13T04:43:40;26.30;99.90
61386;DHT22;47256;18.904;-99.054;2023-07-13T04:46:11;26.20;99.90
61386;DHT22;47256;18.904;-99.054;2023-07-13T04:48:39;26.10;99.90
61386;DHT22;47256;18.904;-99.054;2023-07-13T04:51:07;26.10;99.90
61386;DHT22;47256;18.904;-99.054;2023-07-13T04:53:40;26.00;99.90
61386;DHT22;47256;18.904;-99.054;2023-07-13T04:56:08;26.00;99.90
61386;DHT22;47256;18.904;-99.054;2023-07-13T04:58:36;25.90;99.90
61386;DHT22;47256;18.904;-99.054;2023-07-13T05:01:27;25.90;99.90
61386;DHT22;47256;18.904;-99.054;2023-07-13T05:03:55;25.80;99.90
61386;DHT22;47256;18.904;-99.054;2023-07-13T05:06:25;25.70;99.90
61386;DHT22;47256;18.904;-99.054;2023-07-13T05:08:52;25.70;99.90
61386;DHT22;47256;18.904;-99.054;2023-07-13T05:11:19;25.50;99.90
61386;DHT22;47256;18.904;-99.054;2023-07-13T05:13:47;25.40;99.90
61386;DHT22;47256;18.904;-99.054;2023-07-13T05:16:14;25.40;99.90
61386;DHT22;47256;18.904;-99.054;2023-07-13T05:18:41;25.50;99.90
61386;DHT22;47256;18.904;-99.054;2023-07-13T05:21:10;25.60;99.90
61386;DHT22;47256;18.904;-99.054;2023-07-13T05:23:37;25.50;99.90
61386;DHT22;47256;18.904;-99.054;2023-07-13T05:26:05;25.40;99.90
61386;DHT22;47256;18.904;-99.054;2023-07-13T05:28:32;25.30;99.90
61386;DHT22;47256;18.904;-99.054;2023-07-13T05:30:59;25.40;99.90
61386;DHT22;47256;18.904;-99.054;2023-07-13T05:33:27;25.40;99.90
61386;DHT22;47256;18.904;-99.054;2023-07-13T05:35:55;25.40;99.90
61386;DHT22;47256;18.904;-99.054;2023-07-13T05:38:23;25.30;99.90
61386;DHT22;47256;18.904;-99.054;2023-07-13T05:40:51;25.30;99.90
61386;DHT22;47256;18.904;-99.054;2023-07-13T05:43:18;25.20;99.90
61386;DHT22;47256;18.904;-99.054;2023-07-13T05:45:45;25.10;99.90
61386;DHT22;47256;18.904;-99.054;2023-07-13T05:48:13;25.10;99.90
61386;DHT22;47256;18.904;-99.054;2023-07-13T05:50:40;25.20;99.90
61386;DHT22;47256;18.904;-99.054;2023-07-13T05:53:08;25.20;99.90
61386;DHT22;47256;18.904;-99.054;2023-07-13T05:55:35;25.30;99.90
61386;DHT22;47256;18.904;-99.054;2023-07-13T05:58:02;25.40;99.90
61386;DHT22;47256;18.904;-99.054;2023-07-13T06:00:29;25.40;99.90
61386;DHT22;47256;18.904;-99.054;2023-07-13T06:02:56;25.40;99.90
61386;DHT22;47256;18.904;-99.054;2023-07-13T06:05:25;25.30;99.90
61386;DHT22;47256;18.904;-99.054;2023-07-13T06:07:53;25.30;99.90
61386;DHT22;47256;18.904;-99.054;2023-07-13T06:10:20;25.30;99.90
61386;DHT22;47256;18.904;-99.054;2023-07-13T06:12:48;25.30;99.90
61386;DHT22;47256;18.904;-99.054;2023-07-13T06:15:16;25.30;99.90
61386;DHT22;47256;18.904;-99.054;2023-07-13T06:17:43;25.30;99.90
61386;DHT22;47256;18.904;-99.054;2023-07-13T06:20:11;25.20;99.90
61386;DHT22;47256;18.904;-99.054;2023-07-13T06:22:38;25.20;99.90
61386;DHT22;47256;18.904;-99.054;2023-07-13T06:25:06;25.10;99.90
61386;DHT22;47256;18.904;-99.054;2023-07-13T06:27:33;25.10;99.90
61386;DHT22;47256;18.904;-99.054;2023-07-13T06:30:00;25.10;99.90
61386;DHT22;47256;18.904;-99.054;2023-07-13T06:32:28;25.10;99.90
61386;DHT22;47256;18.904;-99.054;2023-07-13T06:34:55;25.10;99.90
61386;DHT22;47256;18.904;-99.054;2023-07-13T06:37:22;25.10;99.90
61386;DHT22;47256;18.904;-99.054;2023-07-13T06:39:49;25.10;99.90
61386;DHT22;47256;18.904;-99.054;2023-07-13T06:42:17;25.10;99.90
61386;DHT22;47256;18.904;-99.054;2023-07-13T06:44:44;25.10;99.90
61386;DHT22;47256;18.904;-99.054;2023-07-13T06:47:11;25.10;99.90
61386;DHT22;47256;18.904;-99.054;2023-07-13T06:49:38;25.10;99.90
61386;DHT22;47256;18.904;-99.054;2023-07-13T06:52:06;25.10;99.90
61386;DHT22;47256;18.904;-99.054;2023-07-13T06:54:34;25.10;99.90
61386;DHT22;47256;18.904;-99.054;2023-07-13T06:57:01;25.00;99.90
61386;DHT22;47256;18.904;-99.054;2023-07-13T06:59:29;25.10;99.90
61386;DHT22;47256;18.904;-99.054;2023-07-13T07:01:56;25.10;99.90
61386;DHT22;47256;18.904;-99.054;2023-07-13T07:04:23;25.00;99.90
61386;DHT22;47256;18.904;-99.054;2023-07-13T07:06:50;24.90;99.90
61386;DHT22;47256;18.904;-99.054;2023-07-13T07:09:17;24.90;99.90
61386;DHT22;47256;18.904;-99.054;2023-07-13T07:11:44;24.90;99.90
61386;DHT22;47256;18.904;-99.054;2023-07-13T07:14:12;25.00;99.90
61386;DHT22;47256;18.904;-99.054;2023-07-13T07:16:39;25.00;99.90
61386;DHT22;47256;18.904;-99.054;2023-07-13T07:19:06;24.90;99.90
61386;DHT22;47256;18.904;-99.054;2023-07-13T07:21:33;24.90;99.90
61386;DHT22;47256;18.904;-99.054;2023-07-13T07:24:00;24.90;99.90
61386;DHT22;47256;18.904;-99.054;2023-07-13T07:26:29;24.90;99.90
61386;DHT22;47256;18.904;-99.054;2023-07-13T07:28:57;24.90;99.90
61386;DHT22;47256;18.904;-99.054;2023-07-13T07:31:24;24.80;99.90
61386;DHT22;47256;18.904;-99.054;2023-07-13T07:33:52;24.60;99.90
61386;DHT22;47256;18.904;-99.054;2023-07-13T07:36:19;24.50;99.90
61386;DHT22;47256;18.904;-99.054;2023-07-13T07:38:46;24.30;99.90
61386;DHT22;47256;18.904;-99.054;2023-07-13T07:41:13;24.20;99.90
61386;DHT22;47256;18.904;-99.054;2023-07-13T07:43:41;24.20;99.90
61386;DHT22;47256;18.904;-99.054;2023-07-13T07:46:08;24.20;99.90
61386;DHT22;47256;18.904;-99.054;2023-07-13T07:48:35;24.30;99.90
61386;DHT22;47256;18.904;-99.054;2023-07-13T07:51:02;24.40;99.90
61386;DHT22;47256;18.904;-99.054;2023-07-13T07:53:30;24.40;99.90
61386;DHT22;47256;18.904;-99.054;2023-07-13T07:55:57;24.40;99.90
61386;DHT22;47256;18.904;-99.054;2023-07-13T07:58:24;24.30;99.90
61386;DHT22;47256;18.904;-99.054;2023-07-13T08:00:51;24.20;99.90
61386;DHT22;47256;18.904;-99.054;2023-07-13T08:03:18;24.10;99.90
61386;DHT22;47256;18.904;-99.054;2023-07-13T08:05:45;24.20;99.90
61386;DHT22;47256;18.904;-99.054;2023-07-13T08:08:12;24.10;99.90
61386;DHT22;47256;18.904;-99.054;2023-07-13T08:10:40;24.00;99.90
61386;DHT22;47256;18.904;-99.054;2023-07-13T08:13:08;23.80;99.90
61386;DHT22;47256;18.904;-99.054;2023-07-13T08:15:35;23.70;99.90
61386;DHT22;47256;18.904;-99.054;2023-07-13T08:18:04;23.70;99.90
61386;DHT22;47256;18.904;-99.054;2023-07-13T08:20:31;23.50;99.90
61386;DHT22;47256;18.904;-99.054;2023-07-13T08:22:58;23.40;99.90
61386;DHT22;47256;18.904;-99.054;2023-07-13T08:25:25;23.30;99.90
61386;DHT22;47256;18.904;-99.054;2023-07-13T08:27:52;23.20;99.90
61386;DHT22;47256;18.904;-99.054;2023-07-13T08:30:20;23.30;99.90
61386;DHT22;47256;18.904;-99.054;2023-07-13T08:32:47;23.40;99.90
61386;DHT22;47256;18.904;-99.054;2023-07-13T08:35:14;23.50;99.90
61386;DHT22;47256;18.904;-99.054;2023-07-13T08:37:42;23.50;99.90
61386;DHT22;47256;18.904;-99.054;2023-07-13T08:40:11;23.50;99.90
61386;DHT22;47256;18.904;-99.054;2023-07-13T08:42:46;23.50;99.90
61386;DHT22;47256;18.904;-99.054;2023-07-13T08:45:38;23.60;99.90
61386;DHT22;47256;18.904;-99.054;2023-07-13T08:51:44;23.70;99.90
61386;DHT22;47256;18.904;-99.054;2023-07-13T08:54:21;23.70;99.90
61386;DHT22;47256;18.904;-99.054;2023-07-13T08:56:50;23.70;99.90
61386;DHT22;47256;18.904;-99.054;2023-07-13T08:59:24;23.70;99.90
61386;DHT22;47256;18.904;-99.054;2023-07-13T09:04:22;23.70;99.90
61386;DHT22;47256;18.904;-99.054;2023-07-13T09:12:51;23.60;99.90
61386;DHT22;47256;18.904;-99.054;2023-07-13T09:18:04;23.60;99.90
61386;DHT22;47256;18.904;-99.054;2023-07-13T09:23:17;23.50;99.90
61386;DHT22;47256;18.904;-99.054;2023-07-13T09:25:48;23.50;99.90
61386;DHT22;47256;18.904;-99.054;2023-07-13T09:28:29;23.50;99.90
61386;DHT22;47256;18.904;-99.054;2023-07-13T09:31:19;23.50;99.90
61386;DHT22;47256;18.904;-99.054;2023-07-13T09:33:48;23.50;99.90
61386;DHT22;47256;18.904;-99.054;2023-07-13T09:38:49;23.50;99.90
61386;DHT22;47256;18.904;-99.054;2023-07-13T09:44:09;23.50;99.90
61386;DHT22;47256;18.904;-99.054;2023-07-13T09:46:52;23.50;99.90
61386;DHT22;47256;18.904;-99.054;2023-07-13T09:49:27;23.50;99.90
61386;DHT22;47256;18.904;-99.054;2023-07-13T09:52:04;23.50;99.90
61386;DHT22;47256;18.904;-99.054;2023-07-13T09:54:34;23.50;99.90
61386;DHT22;47256;18.904;-99.054;2023-07-13T09:57:08;23.40;99.90
61386;DHT22;47256;18.904;-99.054;2023-07-13T09:59:45;23.40;99.90
61386;DHT22;47256;18.904;-99.054;2023-07-13T10:02:35;23.30;99.90
61386;DHT22;47256;18.904;-99.054;2023-07-13T10:05:11;23.30;99.90
61386;DHT22;47256;18.904;-99.054;2023-07-13T10:07:43;23.30;99.90
61386;DHT22;47256;18.904;-99.054;2023-07-13T10:10:17;23.30;99.90
61386;DHT22;47256;18.904;-99.054;2023-07-13T10:12:45;23.30;99.90
61386;DHT22;47256;18.904;-99.054;2023-07-13T10:15:22;23.20;99.90
61386;DHT22;47256;18.904;-99.054;2023-07-13T10:17:52;23.30;99.90
61386;DHT22;47256;18.904;-99.054;2023-07-13T10:20:21;23.20;99.90
61386;DHT22;47256;18.904;-99.054;2023-07-13T10:25:24;23.20;99.90
61386;DHT22;47256;18.904;-99.054;2023-07-13T10:28:39;23.20;99.90
61386;DHT22;47256;18.904;-99.054;2023-07-13T10:30:43;23.20;99.90
61386;DHT22;47256;18.904;-99.054;2023-07-13T10:33:13;23.20;99.90
61386;DHT22;47256;18.904;-99.054;2023-07-13T10:35:43;23.20;99.90
61386;DHT22;47256;18.904;-99.054;2023-07-13T10:38:18;23.20;99.90
61386;DHT22;47256;18.904;-99.054;2023-07-13T10:41:00;23.20;99.90
61386;DHT22;47256;18.904;-99.054;2023-07-13T10:46:01;23.00;99.90
61386;DHT22;47256;18.904;-99.054;2023-07-13T10:48:29;22.90;99.90
61386;DHT22;47256;18.904;-99.054;2023-07-13T10:50:59;22.90;99.90
61386;DHT22;47256;18.904;-99.054;2023-07-13T10:56:39;22.90;99.90
61386;DHT22;47256;18.904;-99.054;2023-07-13T11:01:46;22.90;99.90
61386;DHT22;47256;18.904;-99.054;2023-07-13T11:04:15;22.80;99.90
61386;DHT22;47256;18.904;-99.054;2023-07-13T11:06:43;22.60;99.90
61386;DHT22;47256;18.904;-99.054;2023-07-13T11:09:38;22.60;99.90
61386;DHT22;47256;18.904;-99.054;2023-07-13T11:25:37;22.40;99.90
61386;DHT22;47256;18.904;-99.054;2023-07-13T11:33:17;22.60;99.90
61386;DHT22;47256;18.904;-99.054;2023-07-13T11:38:45;22.60;99.90
61386;DHT22;47256;18.904;-99.054;2023-07-13T11:41:20;22.60;99.90
61386;DHT22;47256;18.904;-99.054;2023-07-13T11:44:01;22.70;99.90
61386;DHT22;47256;18.904;-99.054;2023-07-13T11:46:29;22.50;99.90
61386;DHT22;47256;18.904;-99.054;2023-07-13T11:48:56;22.60;99.90
61386;DHT22;47256;18.904;-99.054;2023-07-13T11:51:35;22.50;99.90
61386;DHT22;47256;18.904;-99.054;2023-07-13T11:54:17;22.40;99.90
61386;DHT22;47256;18.904;-99.054;2023-07-13T11:56:47;22.40;99.90
61386;DHT22;47256;18.904;-99.054;2023-07-13T11:59:16;22.40;99.90
61386;DHT22;47256;18.904;-99.054;2023-07-13T12:01:47;22.40;99.90
61386;DHT22;47256;18.904;-99.054;2023-07-13T12:04:29;22.20;99.90
61386;DHT22;47256;18.904;-99.054;2023-07-13T12:07:07;22.20;99.90
61386;DHT22;47256;18.904;-99.054;2023-07-13T12:09:36;22.10;99.90
61386;DHT22;47256;18.904;-99.054;2023-07-13T12:12:03;22.10;99.90
61386;DHT22;47256;18.904;-99.054;2023-07-13T12:14:34;22.20;99.90
61386;DHT22;47256;18.904;-99.054;2023-07-13T12:17:01;22.20;99.90
61386;DHT22;47256;18.904;-99.054;2023-07-13T12:19:29;22.10;99.90
61386;DHT22;47256;18.904;-99.054;2023-07-13T12:21:57;22.10;99.90
61386;DHT22;47256;18.904;-99.054;2023-07-13T12:24:26;21.90;99.90
61386;DHT22;47256;18.904;-99.054;2023-07-13T12:27:02;21.80;99.90
61386;DHT22;47256;18.904;-99.054;2023-07-13T12:29:33;21.80;99.90
61386;DHT22;47256;18.904;-99.054;2023-07-13T12:32:00;21.90;99.90
61386;DHT22;47256;18.904;-99.054;2023-07-13T12:34:27;21.90;99.90
61386;DHT22;47256;18.904;-99.054;2023-07-13T12:37:01;22.00;99.90
61386;DHT22;47256;18.904;-99.054;2023-07-13T12:39:38;22.10;99.90
61386;DHT22;47256;18.904;-99.054;2023-07-13T12:44:44;21.90;99.90
61386;DHT22;47256;18.904;-99.054;2023-07-13T12:47:14;21.90;99.90
61386;DHT22;47256;18.904;-99.054;2023-07-13T12:49:48;21.80;99.90
61386;DHT22;47256;18.904;-99.054;2023-07-13T12:52:21;21.90;99.90
61386;DHT22;47256;18.904;-99.054;2023-07-13T12:54:57;22.00;99.90
61386;DHT22;47256;18.904;-99.054;2023-07-13T12:57:25;22.00;99.90
61386;DHT22;47256;18.904;-99.054;2023-07-13T12:59:53;22.00;99.90
61386;DHT22;47256;18.904;-99.054;2023-07-13T13:02:34;22.00;99.90
61386;DHT22;47256;18.904;-99.054;2023-07-13T13:05:02;22.00;99.90
61386;DHT22;47256;18.904;-99.054;2023-07-13T13:07:31;22.00;99.90
61386;DHT22;47256;18.904;-99.054;2023-07-13T13:09:59;22.00;99.90
61386;DHT22;47256;18.904;-99.054;2023-07-13T13:12:26;22.10;99.90
61386;DHT22;47256;18.904;-99.054;2023-07-13T13:14:53;22.10;99.90
61386;DHT22;47256;18.904;-99.054;2023-07-13T13:17:26;22.10;99.90
61386;DHT22;47256;18.904;-99.054;2023-07-13T13:19:55;22.10;99.90
61386;DHT22;47256;18.904;-99.054;2023-07-13T13:22:23;22.00;99.90
61386;DHT22;47256;18.904;-99.054;2023-07-13T13:24:50;22.10;99.90
61386;DHT22;47256;18.904;-99.054;2023-07-13T13:27:22;22.10;99.90
61386;DHT22;47256;18.904;-99.054;2023-07-13T13:29:53;22.10;99.90
61386;DHT22;47256;18.904;-99.054;2023-07-13T13:32:20;22.10;99.90
61386;DHT22;47256;18.904;-99.054;2023-07-13T13:34:47;22.10;99.90
61386;DHT22;47256;18.904;-99.054;2023-07-13T13:37:23;22.10;99.90
61386;DHT22;47256;18.904;-99.054;2023-07-13T13:39:52;22.20;99.90
61386;DHT22;47256;18.904;-99.054;2023-07-13T13:42:20;22.10;99.90
61386;DHT22;47256;18.904;-99.054;2023-07-13T13:44:49;22.20;99.90
61386;DHT22;47256;18.904;-99.054;2023-07-13T13:47:32;22.10;99.90
61386;DHT22;47256;18.904;-99.054;2023-07-13T13:49:59;22.10;99.90
61386;DHT22;47256;18.904;-99.054;2023-07-13T13:52:28;22.10;99.90
61386;DHT22;47256;18.904;-99.054;2023-07-13T13:54:55;22.10;99.90
61386;DHT22;47256;18.904;-99.054;2023-07-13T13:57:24;22.20;99.90
61386;DHT22;47256;18.904;-99.054;2023-07-13T13:59:52;22.20;99.90
61386;DHT22;47256;18.904;-99.054;2023-07-13T14:02:27;22.30;99.90
61386;DHT22;47256;18.904;-99.054;2023-07-13T14:05:00;22.40;99.90
61386;DHT22;47256;18.904;-99.054;2023-07-13T14:07:29;22.40;99.90
61386;DHT22;47256;18.904;-99.054;2023-07-13T14:09:58;22.50;99.90
61386;DHT22;47256;18.904;-99.054;2023-07-13T14:12:28;22.60;99.90
61386;DHT22;47256;18.904;-99.054;2023-07-13T14:14:57;22.70;99.90
61386;DHT22;47256;18.904;-99.054;2023-07-13T14:17:26;22.80;99.90
61386;DHT22;47256;18.904;-99.054;2023-07-13T14:19:54;22.90;99.90
61386;DHT22;47256;18.904;-99.054;2023-07-13T14:22:25;22.90;99.90
61386;DHT22;47256;18.904;-99.054;2023-07-13T14:24:55;23.00;99.90
61386;DHT22;47256;18.904;-99.054;2023-07-13T14:27:25;23.00;99.90
61386;DHT22;47256;18.904;-99.054;2023-07-13T14:29:52;23.20;99.90
61386;DHT22;47256;18.904;-99.054;2023-07-13T14:32:19;23.30;99.90
61386;DHT22;47256;18.904;-99.054;2023-07-13T14:34:46;23.30;99.90
61386;DHT22;47256;18.904;-99.054;2023-07-13T14:37:15;23.30;99.90
61386;DHT22;47256;18.904;-99.054;2023-07-13T14:39:46;23.40;99.90
61386;DHT22;47256;18.904;-99.054;2023-07-13T14:42:16;23.50;99.90
61386;DHT22;47256;18.904;-99.054;2023-07-13T14:44:43;23.60;99.90
61386;DHT22;47256;18.904;-99.054;2023-07-13T14:47:10;23.60;99.90
61386;DHT22;47256;18.904;-99.054;2023-07-13T14:49:43;23.60;99.90
61386;DHT22;47256;18.904;-99.054;2023-07-13T14:52:15;23.60;99.90
61386;DHT22;47256;18.904;-99.054;2023-07-13T14:54:43;23.70;99.90
61386;DHT22;47256;18.904;-99.054;2023-07-13T14:57:17;23.70;99.90
61386;DHT22;47256;18.904;-99.054;2023-07-13T14:59:48;23.80;99.90
61386;DHT22;47256;18.904;-99.054;2023-07-13T15:02:24;23.90;99.90
61386;DHT22;47256;18.904;-99.054;2023-07-13T15:04:53;24.00;99.90
61386;DHT22;47256;18.904;-99.054;2023-07-13T15:07:21;24.10;99.90
61386;DHT22;47256;18.904;-99.054;2023-07-13T15:09:50;24.30;99.90
61386;DHT22;47256;18.904;-99.054;2023-07-13T15:12:18;24.30;99.90
61386;DHT22;47256;18.904;-99.054;2023-07-13T15:14:47;24.40;99.90
61386;DHT22;47256;18.904;-99.054;2023-07-13T15:19:53;24.60;99.90
61386;DHT22;47256;18.904;-99.054;2023-07-13T15:22:22;24.70;99.90
61386;DHT22;47256;18.904;-99.054;2023-07-13T15:24:50;24.80;99.90
61386;DHT22;47256;18.904;-99.054;2023-07-13T15:27:18;24.90;99.90
61386;DHT22;47256;18.904;-99.054;2023-07-13T15:29:46;25.00;99.90
61386;DHT22;47256;18.904;-99.054;2023-07-13T15:32:14;25.00;99.90
61386;DHT22;47256;18.904;-99.054;2023-07-13T15:34:42;25.10;99.90
61386;DHT22;47256;18.904;-99.054;2023-07-13T15:37:16;25.20;99.90
61386;DHT22;47256;18.904;-99.054;2023-07-13T15:39:45;25.30;99.90
61386;DHT22;47256;18.904;-99.054;2023-07-13T15:42:20;25.50;99.90
61386;DHT22;47256;18.904;-99.054;2023-07-13T15:44:50;25.60;99.90
61386;DHT22;47256;18.904;-99.054;2023-07-13T15:47:17;25.70;99.90
61386;DHT22;47256;18.904;-99.054;2023-07-13T15:49:44;25.80;99.90
61386;DHT22;47256;18.904;-99.054;2023-07-13T15:52:21;25.90;99.90
61386;DHT22;47256;18.904;-99.054;2023-07-13T15:54:49;26.00;99.90
61386;DHT22;47256;18.904;-99.054;2023-07-13T15:57:17;26.10;99.90
61386;DHT22;47256;18.904;-99.054;2023-07-13T15:59:45;26.20;99.90
61386;DHT22;47256;18.904;-99.054;2023-07-13T16:02:19;26.40;99.90
61386;DHT22;47256;18.904;-99.054;2023-07-13T16:04:47;26.40;99.90
61386;DHT22;47256;18.904;-99.054;2023-07-13T16:07:16;26.50;99.90
61386;DHT22;47256;18.904;-99.054;2023-07-13T16:09:46;26.50;99.90
61386;DHT22;47256;18.904;-99.054;2023-07-13T16:12:16;26.60;99.90
61386;DHT22;47256;18.904;-99.054;2023-07-13T16:14:44;26.80;99.90
61386;DHT22;47256;18.904;-99.054;2023-07-13T16:17:12;26.90;99.90
61386;DHT22;47256;18.904;-99.054;2023-07-13T16:19:41;27.00;99.90